createdAt,value
2022-10-05T00:01:22.443Z,78.37
2022-10-05T00:03:49.082Z,78.18
2022-10-05T00:06:15.792Z,78.47
2022-10-05T00:08:43.611Z,78.66
2022-10-05T00:11:13.712Z,78.41
2022-10-05T00:13:40.992Z,78.34
2022-10-05T00:16:14.818Z,78.85
2022-10-05T00:18:42.595Z,79.15
2022-10-05T00:21:18.305Z,79.48
2022-10-05T00:23:46.388Z,79.05
2022-10-05T00:26:18.910Z,79.25
2022-10-05T00:28:45.337Z,79.17
2022-10-05T00:31:17.043Z,78.93
2022-10-05T00:33:43.510Z,79.14
2022-10-05T00:36:10.112Z,79.22
2022-10-05T00:38:36.764Z,79.51
2022-10-05T00:41:10.262Z,79.20
2022-10-05T00:43:54.423Z,79.08
2022-10-05T00:46:25.175Z,79.33
2022-10-05T00:49:02.586Z,79.74
2022-10-05T00:51:31.660Z,79.79
2022-10-05T00:54:18.354Z,79.77
2022-10-05T00:57:04.738Z,79.83
2022-10-05T00:59:43.665Z,80.00
2022-10-05T01:02:15.223Z,80.16
2022-10-05T01:04:48.148Z,79.92
2022-10-05T01:07:26.971Z,80.42
2022-10-05T01:10:00.477Z,80.54
2022-10-05T01:12:32.113Z,81.31
2022-10-05T01:15:05.286Z,81.38
2022-10-05T01:17:39.882Z,81.43
2022-10-05T01:20:16.902Z,81.27
2022-10-05T01:23:05.757Z,81.30
2022-10-05T01:25:41.121Z,81.18
2022-10-05T01:28:13.094Z,81.46
2022-10-05T01:30:47.583Z,81.25
2022-10-05T01:33:18.767Z,81.32
2022-10-05T01:35:55.993Z,81.28
2022-10-05T01:38:36.654Z,80.69
2022-10-05T01:41:13.575Z,80.42
2022-10-05T01:43:46.656Z,80.41
2022-10-05T01:46:24.485Z,80.35
2022-10-05T01:49:02.071Z,80.20
2022-10-05T01:51:37.789Z,80.09
2022-10-05T01:54:18.440Z,80.44
2022-10-05T01:56:53.204Z,79.83
2022-10-05T01:59:30.496Z,79.99
2022-10-05T02:02:01.138Z,79.71
2022-10-05T02:05:00.347Z,79.56
2022-10-05T02:07:23.747Z,79.60
2022-10-05T02:09:55.556Z,79.20
2022-10-05T02:12:26.285Z,79.41
2022-10-05T02:14:58.188Z,79.28
2022-10-05T02:17:31.680Z,79.12
2022-10-05T02:19:59.954Z,79.40
2022-10-05T02:22:30.960Z,79.26
2022-10-05T02:25:00.061Z,78.87
2022-10-05T02:27:31.302Z,78.74
2022-10-05T02:30:02.701Z,79.01
2022-10-05T02:32:37.068Z,78.85
2022-10-05T02:35:12.640Z,79.23
2022-10-05T02:37:47.906Z,79.20
2022-10-05T02:40:25.376Z,79.24
2022-10-05T02:43:00.324Z,79.24
2022-10-05T02:45:35.522Z,79.02
2022-10-05T02:48:11.163Z,79.13
2022-10-05T02:50:45.075Z,79.27
2022-10-05T02:53:21.082Z,79.37
2022-10-05T02:55:57.462Z,79.44
2022-10-05T02:58:27.660Z,79.34
2022-10-05T03:01:02.808Z,79.66
2022-10-05T03:03:35.459Z,79.72
2022-10-05T03:06:05.124Z,79.78
2022-10-05T03:08:40.543Z,79.68
2022-10-05T03:11:14.912Z,79.73
2022-10-05T03:13:48.299Z,79.71
2022-10-05T03:16:35.753Z,79.94
2022-10-05T03:19:16.015Z,80.09
2022-10-05T03:21:53.258Z,80.06
2022-10-05T03:24:40.027Z,80.47
2022-10-05T03:27:17.269Z,80.56
2022-10-05T03:29:50.712Z,80.72
2022-10-05T03:32:25.178Z,80.93
2022-10-05T03:34:56.818Z,80.88
2022-10-05T03:37:32.315Z,81.25
2022-10-05T03:40:06.177Z,80.93
2022-10-05T03:42:52.500Z,81.00
2022-10-05T03:45:25.669Z,81.15
2022-10-05T03:48:03.551Z,81.36
2022-10-05T03:50:44.494Z,81.52
2022-10-05T03:53:17.859Z,81.79
2022-10-05T03:55:49.792Z,82.30
2022-10-05T03:58:22.124Z,82.14
2022-10-05T04:00:53.549Z,82.29
2022-10-05T04:03:27.831Z,81.80
2022-10-05T04:05:57.948Z,81.98
2022-10-05T04:08:31.078Z,81.89
2022-10-05T04:11:03.394Z,81.88
2022-10-05T04:13:35.605Z,82.20
2022-10-05T04:16:08.639Z,82.17
2022-10-05T04:18:39.946Z,81.86
2022-10-05T04:21:11.355Z,81.74
2022-10-05T04:23:47.999Z,81.95
2022-10-05T04:26:18.520Z,81.81
2022-10-05T04:28:52.480Z,82.29
2022-10-05T04:31:33.298Z,82.32
2022-10-05T04:34:09.752Z,82.32
2022-10-05T04:36:45.662Z,82.26
2022-10-05T04:39:23.617Z,82.14
2022-10-05T04:42:00.027Z,82.23
2022-10-05T04:44:44.691Z,82.38
2022-10-05T04:47:27.292Z,82.01
2022-10-05T04:50:15.405Z,82.47
2022-10-05T04:52:52.284Z,82.72
2022-10-05T04:55:28.051Z,82.68
2022-10-05T04:58:05.559Z,82.71
2022-10-05T05:00:44.269Z,82.87
2022-10-05T05:03:31.243Z,82.69
2022-10-05T05:06:17.680Z,83.00
2022-10-05T05:09:03.766Z,82.95
2022-10-05T05:11:40.227Z,82.63
2022-10-05T05:14:50.428Z,82.93
2022-10-05T05:17:31.017Z,83.18
2022-10-05T05:20:07.963Z,83.14
2022-10-05T05:22:45.000Z,83.32
2022-10-05T05:25:30.707Z,83.11
2022-10-05T05:28:01.096Z,83.22
2022-10-05T05:30:37.131Z,83.34
2022-10-05T05:33:17.811Z,83.37
2022-10-05T05:36:08.714Z,83.19
2022-10-05T05:38:40.857Z,83.36
2022-10-05T05:41:10.218Z,83.41
2022-10-05T05:43:51.724Z,83.20
2022-10-05T05:46:38.780Z,83.23
2022-10-05T05:49:17.841Z,83.48
2022-10-05T05:51:50.185Z,83.59
2022-10-05T05:54:31.299Z,83.57
2022-10-05T05:57:06.407Z,83.22
2022-10-05T05:59:45.388Z,83.66
2022-10-05T06:02:16.626Z,83.71
2022-10-05T06:04:48.346Z,83.64
2022-10-05T06:07:18.861Z,83.86
2022-10-05T06:09:52.048Z,84.17
2022-10-05T06:12:22.481Z,83.94
2022-10-05T06:14:52.858Z,84.24
2022-10-05T06:17:26.264Z,84.35
2022-10-05T06:19:55.623Z,84.49
2022-10-05T06:22:32.498Z,84.47
2022-10-05T06:25:16.758Z,84.71
2022-10-05T06:28:00.100Z,84.49
2022-10-05T06:30:33.442Z,84.69
2022-10-05T06:33:12.004Z,85.04
2022-10-05T06:35:53.310Z,84.85
2022-10-05T06:38:49.363Z,84.43
2022-10-05T06:41:24.096Z,84.20
2022-10-05T06:43:58.369Z,84.04
2022-10-05T06:46:29.660Z,84.31
2022-10-05T06:49:10.953Z,83.47
2022-10-05T06:51:47.997Z,83.41
2022-10-05T06:54:26.787Z,83.69
2022-10-05T06:57:01.986Z,83.28
2022-10-05T06:59:35.534Z,83.04
2022-10-05T07:02:06.215Z,82.84
2022-10-05T07:04:49.515Z,82.19
2022-10-05T07:07:28.526Z,82.24
2022-10-05T07:10:15.235Z,82.37
2022-10-05T07:12:58.699Z,82.26
2022-10-05T07:15:38.663Z,81.58
2022-10-05T07:18:30.468Z,81.64
2022-10-05T07:21:03.911Z,81.76
2022-10-05T07:23:45.094Z,81.44
2022-10-05T07:26:18.334Z,80.90
2022-10-05T07:28:50.655Z,81.57
2022-10-05T07:31:26.168Z,80.99
2022-10-05T07:34:01.001Z,80.10
2022-10-05T07:36:34.295Z,79.77
2022-10-05T07:39:06.715Z,79.59
2022-10-05T07:41:41.242Z,78.61
2022-10-05T07:44:15.852Z,78.51
2022-10-05T07:46:50.058Z,78.15
2022-10-05T07:49:26.361Z,78.17
2022-10-05T07:51:56.552Z,77.76
2022-10-05T07:54:28.550Z,77.71
2022-10-05T07:57:03.884Z,78.27
2022-10-05T07:59:38.192Z,77.51
2022-10-05T08:02:14.689Z,77.32
2022-10-05T08:04:52.639Z,77.41
2022-10-05T08:07:19.460Z,77.22
2022-10-05T08:09:53.269Z,75.85
2022-10-05T08:12:28.440Z,75.85
2022-10-05T08:15:00.071Z,76.44
2022-10-05T08:17:39.073Z,75.97
2022-10-05T08:20:18.932Z,75.61
2022-10-05T08:22:50.519Z,75.77
2022-10-05T08:25:22.185Z,74.78
2022-10-05T08:27:52.898Z,73.72
2022-10-05T08:30:20.869Z,73.77
2022-10-05T08:32:52.918Z,73.24
2022-10-05T08:35:28.659Z,74.30
2022-10-05T08:37:56.715Z,73.10
2022-10-05T08:41:05.941Z,72.44
2022-10-05T08:43:51.644Z,72.44
2022-10-05T08:46:34.308Z,71.80
2022-10-05T08:49:35.158Z,71.94
2022-10-05T08:52:22.771Z,72.28
2022-10-05T08:55:16.116Z,71.99
2022-10-05T08:58:23.924Z,72.18
2022-10-05T09:00:59.532Z,72.09
2022-10-05T09:03:51.353Z,72.04
2022-10-05T09:06:52.318Z,71.45
2022-10-05T09:09:34.355Z,71.10
2022-10-05T09:12:21.467Z,71.03
2022-10-05T09:15:20.499Z,70.49
2022-10-05T09:18:07.898Z,70.03
2022-10-05T09:20:47.829Z,70.43
2022-10-05T09:23:25.889Z,70.18
2022-10-05T09:25:57.680Z,69.19
2022-10-05T09:28:29.137Z,69.05
2022-10-05T09:31:12.684Z,69.09
2022-10-05T09:34:08.533Z,69.55
2022-10-05T09:37:27.035Z,69.20
2022-10-05T09:40:26.853Z,68.86
2022-10-05T09:43:10.861Z,68.68
2022-10-05T09:45:57.286Z,68.56
2022-10-05T09:48:51.892Z,68.58
2022-10-05T09:52:04.003Z,67.82
2022-10-05T09:54:59.453Z,67.52
2022-10-05T09:57:53.342Z,67.51
2022-10-05T10:00:23.340Z,67.59
2022-10-05T10:03:41.966Z,67.56
2022-10-05T10:06:30.689Z,67.40
2022-10-05T10:09:24.505Z,68.08
2022-10-05T10:12:22.558Z,67.47
2022-10-05T10:15:35.094Z,66.54
2022-10-05T10:18:22.279Z,66.77
2022-10-05T10:21:02.045Z,66.50
2022-10-05T10:23:54.408Z,65.83
2022-10-05T10:26:54.644Z,65.84
2022-10-05T10:29:58.150Z,65.64
2022-10-05T10:33:05.827Z,66.45
2022-10-05T10:35:36.254Z,66.33
2022-10-05T10:38:29.631Z,66.69
2022-10-05T10:41:20.945Z,66.19
2022-10-05T10:44:23.854Z,67.24
2022-10-05T10:47:15.432Z,65.54
2022-10-05T10:50:05.371Z,66.52
2022-10-05T10:52:48.234Z,65.98
2022-10-05T10:55:30.075Z,65.22
2022-10-05T10:58:32.282Z,64.37
2022-10-05T11:01:11.650Z,64.44
2022-10-05T11:04:02.632Z,62.17
2022-10-05T11:07:10.790Z,62.70
2022-10-05T11:09:59.218Z,63.19
2022-10-05T11:13:02.486Z,64.23
2022-10-05T11:15:59.834Z,62.96
2022-10-05T11:18:45.422Z,61.43
2022-10-05T11:21:24.221Z,62.51
2022-10-05T11:24:33.467Z,61.50
2022-10-05T11:27:30.726Z,62.00
2022-10-05T11:30:31.886Z,63.01
2022-10-05T11:33:31.029Z,62.85
2022-10-05T11:36:33.513Z,62.55
2022-10-05T11:39:20.314Z,62.29
2022-10-05T11:42:23.963Z,62.22
2022-10-05T11:45:24.912Z,61.92
2022-10-05T11:48:19.322Z,61.57
2022-10-05T11:50:57.775Z,62.64
2022-10-05T11:53:29.423Z,62.57
2022-10-05T11:56:06.311Z,62.89
2022-10-05T11:58:41.805Z,63.33
2022-10-05T12:01:17.973Z,61.63
2022-10-05T12:03:55.019Z,61.25
2022-10-05T12:06:53.516Z,61.33
2022-10-05T12:09:38.553Z,60.86
2022-10-05T12:12:14.344Z,61.05
2022-10-05T12:14:52.519Z,60.33
2022-10-05T12:17:25.758Z,59.64
2022-10-05T12:19:58.763Z,58.18
2022-10-05T12:22:31.535Z,59.03
2022-10-05T12:25:17.789Z,59.00
2022-10-05T12:27:47.267Z,59.36
2022-10-05T12:30:18.880Z,59.99
2022-10-05T12:33:00.886Z,59.10
2022-10-05T12:35:47.838Z,58.83
2022-10-05T12:38:22.972Z,58.66
2022-10-05T12:40:56.642Z,58.35
2022-10-05T12:43:32.525Z,59.27
2022-10-05T12:46:11.754Z,58.13
2022-10-05T12:48:53.747Z,58.09
2022-10-05T12:51:29.115Z,57.96
2022-10-05T12:54:01.161Z,57.83
2022-10-05T12:56:42.131Z,56.97
2022-10-05T12:59:17.694Z,56.67
2022-10-05T13:01:53.896Z,56.71
2022-10-05T13:04:31.690Z,58.36
2022-10-05T13:07:13.526Z,56.27
2022-10-05T13:09:48.729Z,56.24
2022-10-05T13:12:23.323Z,56.42
2022-10-05T13:14:59.743Z,56.28
2022-10-05T13:17:36.930Z,57.67
2022-10-05T13:20:12.174Z,57.93
2022-10-05T13:22:43.378Z,56.39
2022-10-05T13:25:27.383Z,56.44
2022-10-05T13:28:09.131Z,55.77
2022-10-05T13:30:36.771Z,55.84
2022-10-05T13:33:10.566Z,55.68
2022-10-05T13:35:44.674Z,55.69
2022-10-05T13:38:29.545Z,55.65
2022-10-05T13:41:05.338Z,54.33
2022-10-05T13:43:40.976Z,54.62
2022-10-05T13:46:17.473Z,54.02
2022-10-05T13:48:59.254Z,54.54
2022-10-05T13:51:34.257Z,55.34
2022-10-05T13:54:05.251Z,54.71
2022-10-05T13:56:34.597Z,54.99
2022-10-05T13:59:13.727Z,55.53
2022-10-05T14:01:43.792Z,55.88
2022-10-05T14:04:17.485Z,55.73
2022-10-05T14:06:44.904Z,55.25
2022-10-05T14:09:26.152Z,55.46
2022-10-05T14:12:05.716Z,55.81
2022-10-05T14:14:42.142Z,55.41
2022-10-05T14:17:14.563Z,54.43
2022-10-05T14:19:45.600Z,54.75
2022-10-05T14:22:14.402Z,55.90
2022-10-05T14:24:50.037Z,55.40
2022-10-05T14:27:22.844Z,55.40
2022-10-05T14:29:58.059Z,56.57
2022-10-05T14:32:26.154Z,55.70
2022-10-05T14:35:03.077Z,56.22
2022-10-05T14:37:33.012Z,56.50
2022-10-05T14:40:20.440Z,55.91
2022-10-05T14:42:47.523Z,56.89
2022-10-05T14:45:18.042Z,57.22
2022-10-05T14:47:49.041Z,56.01
2022-10-05T14:50:19.713Z,56.73
2022-10-05T14:53:00.426Z,56.44
2022-10-05T14:55:46.681Z,56.60
2022-10-05T14:58:37.520Z,57.28
2022-10-05T15:01:16.434Z,56.95
2022-10-05T15:03:50.659Z,58.06
2022-10-05T15:06:24.037Z,57.42
2022-10-05T15:08:58.993Z,57.56
2022-10-05T15:11:35.994Z,57.60
2022-10-05T15:14:12.164Z,58.01
2022-10-05T15:16:39.092Z,58.31
2022-10-05T15:19:15.544Z,58.11
2022-10-05T15:22:00.017Z,58.53
2022-10-05T15:24:33.585Z,58.92
2022-10-05T15:27:03.325Z,58.73
2022-10-05T15:29:42.258Z,59.60
2022-10-05T15:32:24.629Z,58.89
2022-10-05T15:35:02.666Z,59.04
2022-10-05T15:37:40.097Z,59.84
2022-10-05T15:40:15.335Z,59.68
2022-10-05T15:42:41.738Z,59.91
2022-10-05T15:45:18.353Z,59.84
2022-10-05T15:47:51.578Z,60.13
2022-10-05T15:50:24.075Z,61.08
2022-10-05T15:52:56.479Z,60.08
2022-10-05T15:55:42.057Z,61.01
2022-10-05T15:58:24.919Z,61.33
2022-10-05T16:00:57.275Z,60.94
2022-10-05T16:03:33.426Z,62.07
2022-10-05T16:06:06.681Z,61.70
2022-10-05T16:08:50.309Z,61.71
2022-10-05T16:11:32.369Z,61.79
2022-10-05T16:14:09.865Z,61.88
2022-10-05T16:16:48.841Z,61.59
2022-10-05T16:19:21.522Z,61.71
2022-10-05T16:21:57.885Z,61.94
2022-10-05T16:24:46.756Z,61.30
2022-10-05T16:27:20.910Z,61.92
2022-10-05T16:29:55.175Z,61.80
2022-10-05T16:32:27.239Z,62.05
2022-10-05T16:35:06.869Z,62.63
2022-10-05T16:37:41.168Z,62.85
2022-10-05T16:40:17.260Z,62.98
2022-10-05T16:43:02.305Z,63.17
2022-10-05T16:45:45.639Z,63.22
2022-10-05T16:48:15.096Z,63.66
2022-10-05T16:50:57.513Z,63.70
2022-10-05T16:53:31.745Z,64.32
2022-10-05T16:56:03.877Z,64.90
2022-10-05T16:58:43.286Z,65.17
2022-10-05T17:01:22.669Z,65.42
2022-10-05T17:04:03.024Z,65.86
2022-10-05T17:06:58.310Z,65.74
2022-10-05T17:09:44.616Z,65.84
2022-10-05T17:12:33.378Z,65.79
2022-10-05T17:15:18.445Z,66.13
2022-10-05T17:18:11.088Z,66.55
2022-10-05T17:20:57.759Z,66.98
2022-10-05T17:23:38.756Z,67.20
2022-10-05T17:26:27.645Z,67.36
2022-10-05T17:29:07.804Z,67.68
2022-10-05T17:32:01.456Z,67.75
2022-10-05T17:34:29.872Z,67.97
2022-10-05T17:36:58.262Z,67.97
2022-10-05T17:39:47.489Z,68.14
2022-10-05T17:42:45.717Z,68.67
2022-10-05T17:45:50.632Z,69.05
2022-10-05T17:48:42.734Z,69.16
2022-10-05T17:51:17.441Z,69.23
2022-10-05T17:53:47.716Z,69.47
2022-10-05T17:56:14.210Z,69.80
2022-10-05T17:59:02.268Z,69.73
2022-10-05T18:01:32.377Z,69.75
2022-10-05T18:04:37.557Z,69.95
2022-10-05T18:07:14.766Z,70.18
2022-10-05T18:09:58.311Z,70.09
2022-10-05T18:12:41.691Z,70.33
2022-10-05T18:15:44.692Z,70.16
2022-10-05T18:18:47.693Z,70.87
2022-10-05T18:21:37.734Z,71.26
2022-10-05T18:24:33.133Z,71.27
2022-10-05T18:27:15.392Z,71.53
2022-10-05T18:29:56.516Z,71.67
2022-10-05T18:32:34.315Z,71.64
2022-10-05T18:35:07.721Z,71.60
2022-10-05T18:37:47.477Z,72.12
2022-10-05T18:40:26.744Z,72.11
2022-10-05T18:43:03.882Z,72.31
2022-10-05T18:45:37.636Z,72.25
2022-10-05T18:48:21.267Z,72.77
2022-10-05T18:50:55.774Z,72.79
2022-10-05T18:53:31.813Z,73.21
2022-10-05T18:56:03.674Z,73.02
2022-10-05T18:58:36.944Z,73.32
2022-10-05T19:01:24.775Z,73.50
2022-10-05T19:04:02.487Z,73.98
2022-10-05T19:06:32.864Z,74.01
2022-10-05T19:09:10.163Z,74.53
2022-10-05T19:11:43.099Z,74.64
2022-10-05T19:14:21.483Z,74.80
2022-10-05T19:17:06.664Z,75.17
2022-10-05T19:19:52.828Z,75.41
2022-10-05T19:22:32.778Z,75.87
2022-10-05T19:25:22.160Z,76.09
2022-10-05T19:27:59.977Z,76.97
2022-10-05T19:30:30.541Z,76.71
2022-10-05T19:33:13.529Z,77.20
2022-10-05T19:35:53.462Z,77.37
2022-10-05T19:38:29.111Z,77.20
2022-10-05T19:41:04.999Z,77.70
2022-10-05T19:43:43.638Z,77.62
2022-10-05T19:46:20.217Z,77.46
2022-10-05T19:48:49.543Z,77.33
2022-10-05T19:51:27.914Z,77.82
2022-10-05T19:53:56.070Z,77.65
2022-10-05T19:56:25.983Z,78.08
2022-10-05T19:58:53.572Z,77.61
2022-10-05T20:01:25.969Z,77.85
2022-10-05T20:03:53.536Z,77.94
2022-10-05T20:06:20.986Z,78.11
2022-10-05T20:08:50.006Z,77.75
2022-10-05T20:11:18.110Z,78.01
2022-10-05T20:14:07.445Z,78.02
2022-10-05T20:16:35.046Z,77.88
2022-10-05T20:19:02.094Z,77.93
2022-10-05T20:21:39.442Z,77.99
2022-10-05T20:24:07.621Z,77.71
2022-10-05T20:26:41.394Z,78.02
2022-10-05T20:29:09.827Z,78.31
2022-10-05T20:31:36.407Z,77.98
2022-10-05T20:34:02.892Z,77.98
2022-10-05T20:36:29.350Z,78.23
2022-10-05T20:38:55.829Z,78.31
2022-10-05T20:41:22.336Z,77.97
2022-10-05T20:43:48.808Z,78.07
2022-10-05T20:46:16.653Z,78.27
2022-10-05T20:48:43.433Z,77.94
2022-10-05T20:51:09.880Z,77.73
2022-10-05T20:53:36.293Z,78.23
2022-10-05T20:56:02.737Z,78.39
2022-10-05T20:58:29.699Z,78.06
2022-10-05T21:00:56.594Z,78.15
2022-10-05T21:03:24.446Z,78.11
2022-10-05T21:05:50.905Z,78.28
2022-10-05T21:08:17.314Z,78.10
2022-10-05T21:10:43.951Z,78.40
2022-10-05T21:13:10.502Z,78.49
2022-10-05T21:15:36.974Z,78.35
2022-10-05T21:18:03.513Z,78.30
2022-10-05T21:20:31.293Z,78.43
2022-10-05T21:22:57.751Z,78.47
2022-10-05T21:25:24.279Z,78.16
2022-10-05T21:27:50.742Z,78.14
2022-10-05T21:30:17.419Z,78.44
2022-10-05T21:32:44.842Z,78.47
2022-10-05T21:35:12.565Z,78.22
2022-10-05T21:37:40.381Z,78.16
2022-10-05T21:40:07.459Z,78.29
2022-10-05T21:42:34.021Z,78.20
2022-10-05T21:45:00.490Z,78.40
2022-10-05T21:47:26.969Z,78.16
2022-10-05T21:49:53.920Z,78.11
2022-10-05T21:52:20.956Z,78.21
2022-10-05T21:54:49.146Z,78.17
2022-10-05T21:57:15.859Z,78.11
2022-10-05T21:59:43.120Z,78.02
2022-10-05T22:02:09.697Z,78.41
2022-10-05T22:04:36.129Z,78.27
2022-10-05T22:07:09.779Z,78.25
2022-10-05T22:09:36.221Z,78.17
2022-10-05T22:12:04.371Z,78.13
2022-10-05T22:14:30.829Z,78.28
2022-10-05T22:16:57.301Z,78.22
2022-10-05T22:19:23.776Z,78.59
2022-10-05T22:21:50.496Z,78.44
2022-10-05T22:24:16.937Z,78.69
2022-10-05T22:26:47.733Z,78.40
2022-10-05T22:29:16.706Z,78.46
2022-10-05T22:31:44.620Z,78.49
2022-10-05T22:34:11.113Z,78.87
2022-10-05T22:36:37.648Z,78.87
2022-10-05T22:39:04.160Z,78.78
2022-10-05T22:41:30.678Z,78.87
2022-10-05T22:43:57.332Z,78.98
2022-10-05T22:46:25.156Z,78.88
2022-10-05T22:48:51.693Z,78.78
2022-10-05T22:51:18.116Z,79.11
2022-10-05T22:53:44.572Z,79.02
2022-10-05T22:56:12.886Z,79.08
2022-10-05T22:58:39.918Z,78.98
2022-10-05T23:01:08.203Z,79.43
2022-10-05T23:03:36.222Z,79.63
2022-10-05T23:06:04.513Z,79.65
2022-10-05T23:08:31.555Z,79.70
2022-10-05T23:11:01.832Z,79.74
2022-10-05T23:13:28.305Z,80.22
2022-10-05T23:15:54.786Z,80.23
2022-10-05T23:18:21.211Z,80.34
2022-10-05T23:20:54.262Z,80.29
2022-10-05T23:23:20.892Z,80.27
2022-10-05T23:25:47.304Z,80.51
2022-10-05T23:28:13.740Z,80.52
2022-10-05T23:30:40.227Z,80.78
2022-10-05T23:33:06.688Z,80.81
2022-10-05T23:35:33.129Z,80.53
2022-10-05T23:38:00.984Z,80.64
2022-10-05T23:40:27.548Z,80.62
2022-10-05T23:42:53.961Z,80.83
2022-10-05T23:45:20.386Z,80.71
2022-10-05T23:47:46.837Z,80.66
2022-10-05T23:50:13.304Z,80.69
2022-10-05T23:52:39.708Z,80.53
2022-10-05T23:55:08.280Z,80.21
2022-10-05T23:57:34.869Z,80.42
